createdAt,value
2022-11-27T00:01:10.786Z,78.61
2022-11-27T00:03:38.668Z,78.85
2022-11-27T00:06:07.395Z,78.80
2022-11-27T00:08:35.210Z,78.63
2022-11-27T00:11:09.087Z,78.65
2022-11-27T00:13:37.185Z,78.69
2022-11-27T00:16:06.120Z,78.46
2022-11-27T00:18:34.075Z,78.60
2022-11-27T00:21:04.702Z,78.56
2022-11-27T00:23:34.133Z,78.33
2022-11-27T00:26:02.127Z,78.43
2022-11-27T00:28:31.408Z,78.40
2022-11-27T00:31:00.548Z,78.23
2022-11-27T00:33:28.537Z,78.54
2022-11-27T00:35:56.491Z,78.38
2022-11-27T00:38:24.247Z,78.66
2022-11-27T00:40:51.994Z,78.76
2022-11-27T00:43:19.696Z,78.57
2022-11-27T00:45:51.166Z,78.62
2022-11-27T00:48:18.883Z,78.39
2022-11-27T00:50:46.617Z,78.54
2022-11-27T00:53:14.328Z,78.67
2022-11-27T00:55:42.067Z,78.76
2022-11-27T00:58:09.838Z,78.72
2022-11-27T01:00:37.598Z,78.77
2022-11-27T01:03:06.914Z,78.65
2022-11-27T01:05:37.077Z,78.89
2022-11-27T01:08:04.973Z,78.58
2022-11-27T01:10:32.650Z,78.84
2022-11-27T01:13:00.415Z,78.55
2022-11-27T01:15:28.108Z,78.55
2022-11-27T01:17:55.814Z,78.52
2022-11-27T01:20:24.987Z,79.03
2022-11-27T01:22:52.708Z,78.76
2022-11-27T01:25:25.524Z,78.71
2022-11-27T01:27:54.743Z,78.56
2022-11-27T01:30:22.704Z,78.52
2022-11-27T01:32:50.416Z,78.37
2022-11-27T01:35:18.378Z,78.50
2022-11-27T01:37:47.500Z,78.31
2022-11-27T01:40:15.283Z,78.42
2022-11-27T01:42:43.021Z,78.36
2022-11-27T01:45:12.046Z,78.47
2022-11-27T01:47:46.702Z,78.22
2022-11-27T01:50:20.034Z,77.91
2022-11-27T01:52:53.358Z,78.29
2022-11-27T01:55:28.806Z,78.21
2022-11-27T01:58:01.149Z,78.51
2022-11-27T02:00:28.999Z,78.67
2022-11-27T02:02:56.781Z,78.54
2022-11-27T02:05:28.538Z,78.56
2022-11-27T02:07:59.878Z,78.13
2022-11-27T02:10:37.945Z,78.46
2022-11-27T02:13:11.094Z,78.15
2022-11-27T02:15:47.902Z,78.34
2022-11-27T02:18:26.176Z,78.65
2022-11-27T02:21:00.690Z,78.90
2022-11-27T02:23:54.056Z,78.49
2022-11-27T02:26:47.439Z,78.56
2022-11-27T02:29:21.991Z,78.47
2022-11-27T02:31:56.610Z,78.26
2022-11-27T02:34:28.676Z,78.38
2022-11-27T02:37:01.962Z,78.57
2022-11-27T02:39:36.106Z,78.59
2022-11-27T02:42:10.649Z,78.50
2022-11-27T02:44:46.040Z,78.31
2022-11-27T02:47:15.504Z,78.57
2022-11-27T02:49:45.278Z,78.39
2022-11-27T02:52:14.783Z,78.73
2022-11-27T02:54:44.715Z,78.48
2022-11-27T02:57:14.817Z,78.42
2022-11-27T02:59:45.763Z,78.49
2022-11-27T03:02:19.805Z,78.51
2022-11-27T03:04:54.844Z,78.55
2022-11-27T03:07:31.370Z,78.40
2022-11-27T03:10:04.806Z,78.46
2022-11-27T03:12:32.718Z,78.61
2022-11-27T03:15:01.856Z,78.54
2022-11-27T03:17:41.573Z,78.45
2022-11-27T03:20:16.576Z,78.04
2022-11-27T03:22:44.413Z,78.10
2022-11-27T03:25:12.341Z,77.91
2022-11-27T03:27:45.589Z,78.31
2022-11-27T03:30:15.318Z,77.92
2022-11-27T03:32:43.761Z,77.92
2022-11-27T03:35:14.646Z,77.70
2022-11-27T03:37:42.559Z,77.30
2022-11-27T03:40:13.017Z,77.68
2022-11-27T03:42:52.178Z,77.33
2022-11-27T03:45:31.149Z,77.00
2022-11-27T03:48:12.616Z,77.04
2022-11-27T03:50:52.513Z,77.21
2022-11-27T03:53:27.134Z,76.78
2022-11-27T03:56:06.776Z,76.59
2022-11-27T03:58:37.653Z,77.03
2022-11-27T04:01:12.112Z,76.45
2022-11-27T04:03:40.180Z,76.92
2022-11-27T04:06:08.015Z,76.60
2022-11-27T04:08:35.848Z,76.14
2022-11-27T04:11:03.537Z,76.30
2022-11-27T04:13:31.205Z,76.23
2022-11-27T04:16:01.415Z,75.83
2022-11-27T04:18:31.057Z,75.92
2022-11-27T04:20:59.072Z,75.79
2022-11-27T04:23:26.843Z,75.78
2022-11-27T04:25:54.615Z,75.69
2022-11-27T04:28:22.413Z,75.89
2022-11-27T04:30:53.813Z,75.62
2022-11-27T04:33:21.803Z,75.65
2022-11-27T04:35:51.400Z,75.27
2022-11-27T04:38:19.212Z,75.47
2022-11-27T04:40:46.966Z,75.58
2022-11-27T04:43:15.087Z,75.47
2022-11-27T04:45:44.360Z,75.61
2022-11-27T04:48:12.257Z,75.50
2022-11-27T04:50:40.126Z,75.09
2022-11-27T04:53:09.305Z,75.08
2022-11-27T04:55:37.236Z,75.14
2022-11-27T04:58:05.031Z,74.93
2022-11-27T05:00:34.054Z,75.00
2022-11-27T05:03:01.893Z,74.94
2022-11-27T05:05:29.662Z,75.12
2022-11-27T05:07:57.506Z,75.11
2022-11-27T05:10:26.782Z,74.92
2022-11-27T05:12:54.522Z,75.07
2022-11-27T05:15:22.339Z,74.97
2022-11-27T05:17:50.254Z,74.87
2022-11-27T05:20:18.521Z,74.84
2022-11-27T05:22:48.185Z,74.81
2022-11-27T05:25:16.099Z,74.94
2022-11-27T05:27:45.432Z,74.66
2022-11-27T05:30:13.583Z,74.79
2022-11-27T05:32:41.399Z,74.39
2022-11-27T05:35:09.862Z,74.28
2022-11-27T05:37:37.635Z,74.35
2022-11-27T05:40:06.525Z,74.32
2022-11-27T05:42:34.224Z,74.09
2022-11-27T05:45:03.383Z,74.49
2022-11-27T05:47:31.057Z,74.22
2022-11-27T05:49:58.742Z,73.89
2022-11-27T05:52:26.503Z,74.23
2022-11-27T05:54:54.992Z,74.21
2022-11-27T05:57:22.700Z,74.03
2022-11-27T05:59:50.427Z,74.04
2022-11-27T06:02:23.734Z,73.79
2022-11-27T06:04:54.217Z,74.13
2022-11-27T06:07:21.956Z,73.93
2022-11-27T06:09:49.699Z,74.11
2022-11-27T06:12:17.490Z,74.01
2022-11-27T06:14:45.243Z,74.04
2022-11-27T06:17:15.619Z,73.71
2022-11-27T06:19:44.883Z,73.67
2022-11-27T06:22:12.621Z,73.87
2022-11-27T06:24:40.741Z,73.80
2022-11-27T06:27:08.946Z,73.66
2022-11-27T06:29:37.988Z,73.66
2022-11-27T06:32:06.587Z,73.46
2022-11-27T06:34:34.458Z,73.65
2022-11-27T06:37:03.625Z,73.38
2022-11-27T06:39:31.442Z,73.24
2022-11-27T06:41:59.148Z,73.38
2022-11-27T06:44:26.954Z,73.32
2022-11-27T06:46:54.762Z,72.82
2022-11-27T06:49:22.673Z,73.21
2022-11-27T06:51:50.807Z,73.20
2022-11-27T06:54:19.929Z,72.93
2022-11-27T06:56:51.886Z,72.88
2022-11-27T06:59:24.533Z,72.95
2022-11-27T07:01:52.375Z,73.24
2022-11-27T07:04:20.134Z,72.99
2022-11-27T07:06:47.850Z,72.85
2022-11-27T07:09:15.629Z,72.82
2022-11-27T07:11:44.794Z,72.82
2022-11-27T07:14:12.592Z,73.03
2022-11-27T07:16:40.507Z,72.66
2022-11-27T07:19:09.095Z,72.78
2022-11-27T07:21:37.543Z,72.84
2022-11-27T07:24:05.624Z,72.71
2022-11-27T07:26:33.698Z,72.02
2022-11-27T07:29:02.992Z,72.53
2022-11-27T07:31:32.017Z,72.45
2022-11-27T07:34:00.300Z,72.36
2022-11-27T07:36:30.550Z,72.21
2022-11-27T07:38:59.114Z,72.43
2022-11-27T07:41:32.430Z,72.31
2022-11-27T07:44:03.046Z,72.40
2022-11-27T07:46:31.245Z,72.37
2022-11-27T07:49:00.408Z,72.56
2022-11-27T07:51:28.651Z,72.30
2022-11-27T07:53:56.439Z,72.07
2022-11-27T07:56:24.150Z,72.23
2022-11-27T07:58:51.984Z,72.03
2022-11-27T08:01:21.692Z,71.96
2022-11-27T08:03:49.616Z,72.00
2022-11-27T08:06:19.477Z,72.12
2022-11-27T08:08:47.546Z,72.06
2022-11-27T08:11:21.127Z,71.64
2022-11-27T08:13:49.469Z,71.49
2022-11-27T08:16:17.823Z,71.47
2022-11-27T08:18:47.179Z,71.57
2022-11-27T08:21:15.590Z,71.23
2022-11-27T08:23:43.491Z,71.09
2022-11-27T08:26:12.668Z,70.95
2022-11-27T08:28:41.849Z,70.97
2022-11-27T08:31:12.067Z,70.64
2022-11-27T08:33:40.026Z,70.78
2022-11-27T08:36:14.974Z,70.48
2022-11-27T08:38:45.534Z,70.21
2022-11-27T08:41:13.310Z,69.97
2022-11-27T08:43:41.143Z,69.98
2022-11-27T08:46:09.887Z,70.17
2022-11-27T08:48:38.026Z,70.31
2022-11-27T08:51:07.798Z,69.50
2022-11-27T08:53:37.702Z,69.27
2022-11-27T08:56:10.644Z,69.16
2022-11-27T08:58:40.935Z,69.37
2022-11-27T09:01:10.755Z,69.26
2022-11-27T09:03:38.830Z,69.55
2022-11-27T09:06:11.372Z,69.33
2022-11-27T09:08:40.827Z,69.28
2022-11-27T09:11:09.507Z,68.96
2022-11-27T09:13:37.700Z,69.44
2022-11-27T09:16:05.630Z,69.08
2022-11-27T09:18:33.615Z,68.88
2022-11-27T09:21:05.163Z,68.87
2022-11-27T09:23:33.495Z,69.08
2022-11-27T09:26:04.074Z,68.68
2022-11-27T09:28:33.467Z,68.21
2022-11-27T09:31:03.387Z,68.46
2022-11-27T09:33:32.892Z,68.05
2022-11-27T09:36:05.810Z,67.86
2022-11-27T09:38:33.897Z,67.37
2022-11-27T09:41:13.176Z,67.20
2022-11-27T09:43:45.772Z,67.17
2022-11-27T09:46:20.276Z,67.24
2022-11-27T09:48:51.732Z,67.14
2022-11-27T09:51:29.568Z,66.62
2022-11-27T09:54:03.039Z,66.84
2022-11-27T09:56:36.218Z,67.12
2022-11-27T09:59:09.665Z,66.62
2022-11-27T10:01:45.244Z,66.59
2022-11-27T10:04:20.819Z,66.19
2022-11-27T10:07:13.405Z,66.01
2022-11-27T10:09:55.109Z,65.95
2022-11-27T10:12:34.141Z,66.03
2022-11-27T10:15:08.508Z,66.13
2022-11-27T10:17:41.072Z,66.18
2022-11-27T10:20:15.905Z,65.88
2022-11-27T10:22:51.379Z,66.23
2022-11-27T10:25:22.075Z,66.84
2022-11-27T10:28:04.018Z,66.79
2022-11-27T10:30:37.735Z,66.85
2022-11-27T10:33:17.262Z,67.59
2022-11-27T10:35:48.653Z,68.43
2022-11-27T10:38:20.472Z,68.48
2022-11-27T10:40:54.558Z,68.99
2022-11-27T10:43:25.303Z,69.04
2022-11-27T10:45:55.557Z,68.84
2022-11-27T10:48:24.063Z,68.80
2022-11-27T10:50:52.211Z,68.80
2022-11-27T10:53:27.502Z,68.76
2022-11-27T10:56:32.463Z,69.04
2022-11-27T10:59:04.504Z,69.12
2022-11-27T11:01:43.987Z,68.46
2022-11-27T11:04:36.379Z,69.23
2022-11-27T11:07:02.744Z,69.07
2022-11-27T11:09:32.247Z,68.83
2022-11-27T11:12:08.717Z,69.24
2022-11-27T11:14:38.151Z,69.06
2022-11-27T11:17:17.034Z,69.11
2022-11-27T11:19:45.949Z,69.15
2022-11-27T11:22:16.295Z,69.40
2022-11-27T11:24:47.845Z,69.31
2022-11-27T11:27:18.436Z,68.77
2022-11-27T11:29:51.881Z,69.13
2022-11-27T11:32:24.820Z,69.16
2022-11-27T11:35:00.903Z,68.53
2022-11-27T11:37:31.533Z,68.36
2022-11-27T11:40:01.990Z,68.74
2022-11-27T11:42:31.912Z,68.56
2022-11-27T11:45:07.108Z,68.73
2022-11-27T11:47:36.766Z,68.24
2022-11-27T11:50:05.070Z,67.97
2022-11-27T11:52:48.098Z,68.17
2022-11-27T11:55:21.002Z,67.92
2022-11-27T11:58:03.648Z,67.60
2022-11-27T12:00:58.460Z,67.32
2022-11-27T12:03:36.182Z,67.80
2022-11-27T12:06:32.865Z,67.30
2022-11-27T12:09:09.442Z,67.25
2022-11-27T12:11:45.431Z,67.68
2022-11-27T12:14:23.572Z,67.21
2022-11-27T12:17:02.819Z,66.71
2022-11-27T12:19:55.774Z,67.03
2022-11-27T12:22:37.061Z,66.06
2022-11-27T12:25:18.692Z,66.01
2022-11-27T12:28:02.391Z,66.42
2022-11-27T12:30:41.967Z,65.77
2022-11-27T12:33:44.864Z,65.96
2022-11-27T12:36:23.416Z,65.87
2022-11-27T12:39:10.228Z,65.71
2022-11-27T12:41:50.825Z,65.60
2022-11-27T12:44:26.287Z,65.34
2022-11-27T12:46:59.768Z,65.11
2022-11-27T12:49:33.488Z,65.04
2022-11-27T12:52:10.918Z,64.16
2022-11-27T12:54:44.377Z,64.36
2022-11-27T12:57:17.645Z,64.11
2022-11-27T12:59:51.871Z,64.82
2022-11-27T13:02:39.629Z,64.42
2022-11-27T13:05:13.319Z,64.00
2022-11-27T13:07:47.979Z,63.56
2022-11-27T13:10:24.499Z,64.32
2022-11-27T13:13:03.040Z,63.45
2022-11-27T13:15:35.525Z,63.19
2022-11-27T13:18:06.122Z,63.06
2022-11-27T13:20:39.862Z,62.97
2022-11-27T13:23:07.625Z,62.16
2022-11-27T13:25:42.877Z,62.84
2022-11-27T13:28:22.191Z,62.33
2022-11-27T13:30:52.651Z,61.93
2022-11-27T13:33:34.116Z,61.86
2022-11-27T13:36:07.026Z,62.19
2022-11-27T13:38:37.471Z,61.03
2022-11-27T13:41:06.919Z,61.78
2022-11-27T13:43:43.311Z,62.06
2022-11-27T13:46:16.201Z,62.22
2022-11-27T13:48:49.246Z,62.75
2022-11-27T13:51:27.659Z,62.54
2022-11-27T13:54:07.310Z,63.14
2022-11-27T13:56:35.154Z,62.79
2022-11-27T13:59:14.481Z,62.45
2022-11-27T14:01:53.856Z,62.02
2022-11-27T14:04:21.617Z,62.78
2022-11-27T14:06:57.537Z,63.21
2022-11-27T14:09:34.685Z,63.83
2022-11-27T14:12:02.527Z,64.28
2022-11-27T14:14:30.579Z,63.83
2022-11-27T14:17:02.645Z,64.69
2022-11-27T14:19:34.903Z,65.11
2022-11-27T14:22:15.691Z,65.14
2022-11-27T14:24:45.862Z,65.57
2022-11-27T14:27:19.954Z,64.90
2022-11-27T14:29:47.763Z,64.98
2022-11-27T14:32:17.309Z,64.49
2022-11-27T14:34:46.093Z,65.31
2022-11-27T14:37:27.035Z,65.39
2022-11-27T14:39:55.262Z,64.92
2022-11-27T14:42:29.043Z,65.12
2022-11-27T14:45:06.452Z,65.69
2022-11-27T14:47:35.110Z,66.28
2022-11-27T14:50:03.946Z,66.69
2022-11-27T14:52:33.214Z,67.05
2022-11-27T14:55:02.267Z,67.17
2022-11-27T14:57:31.904Z,67.25
2022-11-27T15:00:17.232Z,67.36
2022-11-27T15:02:45.383Z,68.17
2022-11-27T15:05:23.028Z,68.21
2022-11-27T15:07:54.871Z,68.23
2022-11-27T15:10:33.347Z,67.47
2022-11-27T15:13:02.500Z,68.18
2022-11-27T15:15:34.880Z,67.90
2022-11-27T15:18:05.864Z,68.30
2022-11-27T15:20:39.615Z,68.08
2022-11-27T15:23:17.429Z,67.25
2022-11-27T15:25:47.685Z,68.16
2022-11-27T15:28:36.104Z,67.19
2022-11-27T15:31:22.448Z,67.21
2022-11-27T15:33:59.690Z,67.32
2022-11-27T15:36:28.225Z,66.28
2022-11-27T15:39:17.420Z,66.24
2022-11-27T15:41:52.562Z,65.32
2022-11-27T15:44:20.342Z,65.95
2022-11-27T15:46:48.322Z,65.91
2022-11-27T15:49:16.226Z,65.65
2022-11-27T15:51:44.539Z,65.64
2022-11-27T15:54:13.638Z,65.45
2022-11-27T15:56:41.504Z,65.53
2022-11-27T15:59:10.085Z,65.27
2022-11-27T16:01:38.250Z,65.20
2022-11-27T16:04:06.257Z,65.34
2022-11-27T16:06:36.293Z,64.99
2022-11-27T16:09:05.596Z,64.45
2022-11-27T16:11:34.744Z,64.44
2022-11-27T16:14:02.597Z,64.97
2022-11-27T16:16:31.185Z,65.92
2022-11-27T16:18:59.863Z,65.69
2022-11-27T16:21:29.975Z,65.01
2022-11-27T16:24:01.475Z,65.66
2022-11-27T16:26:29.855Z,64.92
2022-11-27T16:28:59.379Z,65.11
2022-11-27T16:31:28.032Z,64.92
2022-11-27T16:33:55.823Z,65.09
2022-11-27T16:36:24.082Z,65.47
2022-11-27T16:38:54.195Z,65.47
2022-11-27T16:41:23.304Z,65.54
2022-11-27T16:43:55.124Z,65.88
2022-11-27T16:46:26.887Z,66.02
2022-11-27T16:48:55.897Z,65.65
2022-11-27T16:51:25.778Z,65.96
2022-11-27T16:53:55.131Z,66.64
2022-11-27T16:56:25.138Z,66.71
2022-11-27T16:58:56.722Z,66.84
2022-11-27T17:01:30.302Z,66.73
2022-11-27T17:03:58.172Z,67.06
2022-11-27T17:06:27.854Z,66.89
2022-11-27T17:08:56.485Z,66.64
2022-11-27T17:11:26.816Z,66.63
2022-11-27T17:13:58.099Z,67.06
2022-11-27T17:16:26.460Z,66.32
2022-11-27T17:18:55.806Z,66.27
2022-11-27T17:21:26.382Z,67.47
2022-11-27T17:23:56.159Z,67.20
2022-11-27T17:26:25.695Z,67.80
2022-11-27T17:28:56.035Z,67.34
2022-11-27T17:31:26.633Z,67.24
2022-11-27T17:33:57.384Z,66.71
2022-11-27T17:36:25.533Z,67.20
2022-11-27T17:38:53.607Z,67.71
2022-11-27T17:41:24.838Z,67.10
2022-11-27T17:43:52.581Z,67.31
2022-11-27T17:46:22.473Z,66.88
2022-11-27T17:48:50.682Z,66.89
2022-11-27T17:51:20.242Z,67.25
2022-11-27T17:53:48.619Z,66.75
2022-11-27T17:56:18.386Z,66.93
2022-11-27T17:58:46.218Z,66.32
2022-11-27T18:01:17.342Z,66.29
2022-11-27T18:03:46.190Z,66.40
2022-11-27T18:06:14.836Z,66.75
2022-11-27T18:08:45.093Z,66.66
2022-11-27T18:11:14.805Z,66.71
2022-11-27T18:13:42.569Z,66.79
2022-11-27T18:16:12.389Z,66.80
2022-11-27T18:18:40.789Z,66.78
2022-11-27T18:21:14.022Z,66.45
2022-11-27T18:24:14.923Z,66.38
2022-11-27T18:29:24.011Z,66.55
2022-11-27T18:31:53.237Z,66.56
2022-11-27T18:34:20.987Z,66.56
2022-11-27T18:36:54.710Z,67.00
2022-11-27T18:39:23.846Z,66.56
2022-11-27T18:41:51.558Z,66.49
2022-11-27T18:44:19.479Z,66.33
2022-11-27T18:46:47.472Z,66.86
2022-11-27T18:49:15.214Z,66.74
2022-11-27T18:51:42.973Z,67.28
2022-11-27T18:54:10.628Z,66.81
2022-11-27T18:56:39.750Z,67.09
2022-11-27T18:59:08.376Z,66.82
2022-11-27T19:01:42.052Z,67.03
2022-11-27T19:04:12.284Z,67.03
2022-11-27T19:06:42.097Z,66.85
2022-11-27T19:09:11.521Z,66.70
2022-11-27T19:11:41.024Z,66.51
2022-11-27T19:14:09.333Z,66.86
2022-11-27T19:16:42.117Z,66.60
2022-11-27T19:19:38.956Z,67.64
2022-11-27T19:21:58.177Z,67.86
2022-11-27T19:24:25.839Z,68.07
2022-11-27T19:26:54.956Z,68.62
2022-11-27T19:29:22.635Z,68.43
2022-11-27T19:31:50.473Z,69.32
2022-11-27T19:34:18.266Z,69.58
2022-11-27T19:36:46.013Z,70.27
2022-11-27T19:39:15.918Z,70.61
2022-11-27T19:41:44.051Z,70.62
2022-11-27T19:44:14.313Z,70.54
2022-11-27T19:46:42.278Z,70.81
2022-11-27T19:49:14.050Z,70.98
2022-11-27T19:51:42.240Z,70.26
2022-11-27T19:54:12.768Z,70.69
2022-11-27T19:56:42.205Z,70.26
2022-11-27T19:59:10.922Z,70.32
2022-11-27T20:01:40.713Z,69.77
2022-11-27T20:04:10.432Z,69.95
2022-11-27T20:06:41.081Z,69.97
2022-11-27T20:09:08.940Z,69.14
2022-11-27T20:11:37.089Z,69.06
2022-11-27T20:14:06.324Z,68.73
2022-11-27T20:16:34.840Z,69.00
2022-11-27T20:19:07.228Z,69.65
2022-11-27T20:21:36.539Z,68.31
2022-11-27T20:24:09.545Z,68.74
2022-11-27T20:26:42.461Z,68.39
2022-11-27T20:29:10.853Z,67.95
2022-11-27T20:31:40.244Z,68.29
2022-11-27T20:34:10.060Z,68.14
2022-11-27T20:36:41.042Z,67.54
2022-11-27T20:39:13.008Z,67.63
2022-11-27T20:41:42.905Z,67.19
2022-11-27T20:44:11.591Z,67.09
2022-11-27T20:46:39.349Z,67.04
2022-11-27T20:49:07.138Z,67.10
2022-11-27T20:51:39.845Z,66.91
2022-11-27T20:54:07.850Z,66.88
2022-11-27T20:56:41.880Z,66.39
2022-11-27T20:59:09.749Z,66.50
2022-11-27T21:01:38.732Z,66.11
2022-11-27T21:04:09.525Z,66.96
2022-11-27T21:06:43.660Z,66.74
2022-11-27T21:09:16.437Z,65.94
2022-11-27T21:11:45.195Z,66.16
2022-11-27T21:14:15.291Z,66.63
2022-11-27T21:16:46.114Z,66.37
2022-11-27T21:19:16.496Z,66.26
2022-11-27T21:21:45.678Z,66.18
2022-11-27T21:24:14.052Z,66.35
2022-11-27T21:26:42.019Z,66.61
2022-11-27T21:29:10.890Z,65.99
2022-11-27T21:31:42.659Z,65.87
2022-11-27T21:34:13.250Z,65.92
2022-11-27T21:36:41.011Z,65.37
2022-11-27T21:39:13.164Z,65.48
2022-11-27T21:41:41.045Z,65.96
2022-11-27T21:44:08.766Z,65.77
2022-11-27T21:46:37.507Z,66.25
2022-11-27T21:49:05.584Z,66.42
2022-11-27T21:51:33.391Z,66.69
2022-11-27T21:54:01.101Z,67.03
2022-11-27T21:56:32.269Z,68.48
2022-11-27T21:58:59.971Z,69.06
2022-11-27T22:01:29.232Z,69.97
2022-11-27T22:03:58.663Z,70.52
2022-11-27T22:06:28.492Z,71.10
2022-11-27T22:08:58.031Z,71.51
2022-11-27T22:11:28.729Z,71.08
2022-11-27T22:13:58.910Z,72.06
2022-11-27T22:16:28.048Z,72.26
2022-11-27T22:18:57.342Z,72.73
2022-11-27T22:21:27.220Z,73.94
2022-11-27T22:23:55.130Z,73.52
2022-11-27T22:26:24.368Z,73.66
2022-11-27T22:28:52.390Z,73.72
2022-11-27T22:31:24.077Z,73.06
2022-11-27T22:33:52.095Z,74.10
2022-11-27T22:36:21.644Z,74.02
2022-11-27T22:38:52.271Z,74.42
2022-11-27T22:41:21.028Z,74.31
2022-11-27T22:43:48.859Z,74.93
2022-11-27T22:46:18.642Z,75.24
2022-11-27T22:48:48.090Z,75.30
2022-11-27T22:51:15.888Z,75.32
2022-11-27T22:53:43.564Z,75.80
2022-11-27T22:56:13.087Z,75.63
2022-11-27T22:58:42.093Z,75.36
2022-11-27T23:01:14.633Z,75.59
2022-11-27T23:03:42.283Z,75.88
2022-11-27T23:06:12.823Z,75.75
2022-11-27T23:08:40.946Z,75.49
2022-11-27T23:11:09.443Z,76.01
2022-11-27T23:13:37.562Z,76.10
2022-11-27T23:16:07.084Z,75.92
2022-11-27T23:18:35.505Z,76.49
2022-11-27T23:21:06.574Z,76.54
2022-11-27T23:23:35.762Z,76.96
2022-11-27T23:26:04.903Z,76.82
2022-11-27T23:28:32.653Z,77.32
2022-11-27T23:31:22.642Z,77.56
2022-11-27T23:33:53.184Z,78.43
2022-11-27T23:36:21.025Z,78.51
2022-11-27T23:38:50.179Z,79.40
2022-11-27T23:41:20.233Z,79.41
2022-11-27T23:43:48.344Z,80.28
2022-11-27T23:46:18.084Z,80.41
2022-11-27T23:48:46.568Z,81.01
2022-11-27T23:51:16.257Z,81.02
2022-11-27T23:53:43.966Z,81.19
2022-11-27T23:56:15.314Z,81.43
2022-11-27T23:58:47.002Z,81.26
